Time;durP1;ratioP1;P1;durP2;ratioP2;P2;SDS_P1;SDS_P2;PMS_P1;PMS_P2;Temp;Humidity;BMP_temperature;BMP_pressure;BME280_temperature;BME280_humidity;BME280_pressure;Samples;Min_cycle;Max_cycle;Signal;HPM_P1;HPM_P2
2022/06/10 00:01:44;;;;;;;4.32;1.48;;;18.30;87.50;;;;;;10504035;28;20077;-64
2022/06/10 00:06:45;;;;;;;3.00;1.40;;;18.20;87.40;;;;;;10503732;28;20055;-59
2022/06/10 00:11:46;;;;;;;3.88;1.42;;;18.20;87.50;;;;;;10506526;28;20067;-59
2022/06/10 00:16:47;;;;;;;3.00;1.60;;;18.20;88.10;;;;;;10506355;28;20070;-61
2022/06/10 00:21:47;;;;;;;3.35;1.27;;;18.20;87.60;;;;;;10501609;28;20031;-64
2022/06/10 00:26:48;;;;;;;1.83;1.23;;;18.10;87.50;;;;;;10511332;28;20020;-58
2022/06/10 00:31:49;;;;;;;2.03;1.30;;;18.10;87.60;;;;;;10511576;28;20103;-61
2022/06/10 00:36:50;;;;;;;2.80;1.67;;;18.10;87.60;;;;;;10507109;28;20024;-64
2022/06/10 00:41:51;;;;;;;6.72;1.60;;;18.00;87.50;;;;;;10509404;28;20115;-58
2022/06/10 00:46:52;;;;;;;2.50;1.70;;;18.00;87.50;;;;;;10511007;28;20028;-59
2022/06/10 00:51:56;;;;;;;2.33;1.15;;;18.00;87.50;;;;;;10511140;28;20032;-58
2022/06/10 00:57:03;;;;;;;2.28;1.70;;;18.00;87.50;;;;;;10507166;28;20130;-64
2022/06/10 01:02:09;;;;;;;3.70;1.20;;;17.90;87.50;;;;;;10512560;28;20024;-60
2022/06/10 01:07:14;;;;;;;2.78;1.10;;;17.90;87.50;;;;;;10506335;28;20053;-62
2022/06/10 01:12:22;;;;;;;3.08;1.30;;;17.80;87.40;;;;;;10512448;28;20036;-63
2022/06/10 01:17:31;;;;;;;3.50;1.55;;;17.80;87.40;;;;;;10507878;28;20070;-58
2022/06/10 01:23:02;;;;;;;5.15;1.33;;;17.80;87.40;;;;;;10513732;28;20062;-63
2022/06/10 01:28:21;;;;;;;2.67;1.20;;;17.70;87.20;;;;;;10509931;28;20089;-60
2022/06/10 01:33:59;;;;;;;3.97;1.30;;;17.70;87.30;;;;;;10509450;28;20147;-58
2022/06/10 01:39:08;;;;;;;3.77;1.40;;;17.70;87.20;;;;;;10507107;28;20024;-64
2022/06/10 01:44:25;;;;;;;2.92;1.38;;;17.70;87.40;;;;;;10502228;28;20028;-58
2022/06/10 01:49:30;;;;;;;4.57;1.60;;;17.60;87.20;;;;;;10503341;28;20062;-62
2022/06/10 01:54:42;;;;;;;3.85;1.17;;;17.60;87.30;;;;;;10508130;28;20052;-63
2022/06/10 01:59:51;;;;;;;4.53;1.30;;;17.60;87.20;;;;;;10502454;28;20107;-57
2022/06/10 02:05:01;;;;;;;2.78;1.55;;;17.60;87.30;;;;;;10508931;28;20023;-63
2022/06/10 02:10:20;;;;;;;4.07;2.03;;;17.50;87.20;;;;;;10514541;28;20055;-62
2022/06/10 02:15:24;;;;;;;3.25;1.48;;;17.50;87.20;;;;;;10505148;28;20031;-63
2022/06/10 02:20:29;;;;;;;1.85;1.27;;;17.50;87.30;;;;;;10513352;28;20020;-59
2022/06/10 02:25:40;;;;;;;1.98;1.25;;;17.40;87.10;;;;;;10504646;28;20142;-58
2022/06/10 02:30:48;;;;;;;3.08;1.42;;;17.40;87.20;;;;;;10510487;28;20040;-64
2022/06/10 02:36:03;;;;;;;1.60;1.43;;;17.40;87.20;;;;;;10498127;28;20469;-63
2022/06/10 02:41:28;;;;;;;3.20;1.30;;;17.30;87.10;;;;;;10506440;28;20568;-64
2022/06/10 02:47:05;;;;;;;3.13;1.25;;;17.30;87.10;;;;;;10500988;28;20735;-57
2022/06/10 02:52:08;;;;;;;2.70;1.10;;;17.30;87.00;;;;;;10512459;28;20024;-58
2022/06/10 02:57:13;;;;;;;3.28;1.30;;;17.30;87.20;;;;;;10507807;28;20065;-63
2022/06/10 03:02:23;;;;;;;2.28;1.40;;;17.30;87.30;;;;;;10495032;28;20198;-59
2022/06/10 03:07:32;;;;;;;2.90;1.60;;;17.20;87.20;;;;;;10515478;28;20134;-65
2022/06/10 03:12:49;;;;;;;2.60;1.23;;;17.30;87.20;;;;;;10505248;28;20102;-64
2022/06/10 03:18:24;;;;;;;2.75;1.38;;;17.20;87.20;;;;;;10493276;28;20043;-62
2022/06/10 03:23:44;;;;;;;4.50;1.35;;;17.10;87.20;;;;;;10504211;28;20400;-61
2022/06/10 03:28:56;;;;;;;3.10;1.33;;;17.10;87.30;;;;;;10502821;28;20539;-61
2022/06/10 03:34:04;;;;;;;2.75;1.20;;;17.10;87.30;;;;;;10505001;28;20488;-63
2022/06/10 03:39:07;;;;;;;3.85;1.30;;;17.10;87.30;;;;;;10507975;28;20040;-62
2022/06/10 03:44:17;;;;;;;2.45;1.13;;;17.00;87.30;;;;;;10506765;28;20025;-62
2022/06/10 03:49:21;;;;;;;3.10;1.33;;;17.00;87.30;;;;;;10504274;28;20093;-64
2022/06/10 03:54:22;;;;;;;4.03;1.40;;;17.00;87.30;;;;;;10508823;28;20027;-65
2022/06/10 03:59:22;;;;;;;1.48;1.02;;;17.00;87.40;;;;;;10514370;28;20440;-64
2022/06/10 04:04:23;;;;;;;3.13;1.23;;;17.00;87.30;;;;;;10511606;28;20035;-64
2022/06/10 04:09:24;;;;;;;4.00;1.30;;;17.00;87.50;;;;;;10517322;28;20042;-64
2022/06/10 04:14:24;;;;;;;1.67;1.00;;;17.00;87.50;;;;;;10512261;28;20388;-57
2022/06/10 04:19:25;;;;;;;4.38;1.27;;;17.00;87.50;;;;;;10505027;28;20810;-59
2022/06/10 04:24:26;;;;;;;3.10;1.33;;;17.00;87.50;;;;;;10517266;28;20025;-63
2022/06/10 04:29:26;;;;;;;3.28;1.40;;;17.00;87.50;;;;;;10513218;28;20493;-65
2022/06/10 04:34:27;;;;;;;3.58;1.50;;;17.00;87.50;;;;;;10514613;28;20099;-58
2022/06/10 04:39:28;;;;;;;3.13;1.58;;;17.00;87.50;;;;;;10514163;28;20436;-59
2022/06/10 04:44:28;;;;;;;2.80;1.33;;;17.00;87.50;;;;;;10517408;28;20023;-61
2022/06/10 04:49:30;;;;;;;5.10;1.65;;;17.00;87.50;;;;;;10506143;28;20032;-59
2022/06/10 04:54:30;;;;;;;3.08;1.50;;;17.10;87.60;;;;;;10503234;28;20400;-65
2022/06/10 04:59:31;;;;;;;2.50;1.50;;;17.00;87.60;;;;;;10507453;28;20039;-58
2022/06/10 05:04:32;;;;;;;2.40;1.40;;;17.00;87.70;;;;;;10499955;28;20761;-62
2022/06/10 05:09:33;;;;;;;3.50;1.50;;;17.00;87.70;;;;;;10509524;28;20054;-64
2022/06/10 05:14:34;;;;;;;4.93;1.40;;;17.00;87.70;;;;;;10505665;28;20539;-64
2022/06/10 05:19:35;;;;;;;3.50;1.60;;;17.00;87.80;;;;;;10508690;28;20485;-58
2022/06/10 05:24:36;;;;;;;4.07;1.40;;;17.00;87.80;;;;;;10515128;28;20165;-57
2022/06/10 05:29:36;;;;;;;5.07;1.90;;;17.00;87.80;;;;;;10503854;28;20052;-59
2022/06/10 05:34:46;;;;;;;3.30;1.73;;;17.00;87.90;;;;;;10509130;28;20016;-62
2022/06/10 05:39:47;;;;;;;3.80;1.40;;;17.00;87.90;;;;;;10515157;28;20035;-62
2022/06/10 05:44:50;;;;;;;3.15;1.20;;;17.00;88.10;;;;;;10513246;28;20028;-65
2022/06/10 05:49:54;;;;;;;4.35;1.42;;;17.00;88.10;;;;;;10507306;28;20036;-61
2022/06/10 05:54:57;;;;;;;3.95;1.50;;;17.00;88.20;;;;;;10509440;28;20024;-63
2022/06/10 05:59:58;;;;;;;3.53;1.70;;;17.00;88.30;;;;;;10501303;28;20028;-59
2022/06/10 06:04:59;;;;;;;3.83;1.13;;;17.00;88.40;;;;;;10499110;28;20028;-60
2022/06/10 06:10:00;;;;;;;3.25;1.35;;;17.10;88.50;;;;;;10498779;28;20416;-65
2022/06/10 06:15:01;;;;;;;4.85;1.58;;;17.10;88.60;;;;;;10498528;28;20032;-64
2022/06/10 06:20:03;;;;;;;6.78;1.60;;;17.10;88.80;;;;;;10503684;28;20401;-65
2022/06/10 06:25:04;;;;;;;3.00;1.30;;;17.10;88.80;;;;;;10506895;28;20381;-60
2022/06/10 06:30:05;;;;;;;4.35;1.08;;;17.10;88.90;;;;;;10506508;28;20044;-58
2022/06/10 06:35:06;;;;;;;1.52;1.42;;;17.20;89.00;;;;;;10503242;28;20055;-60
2022/06/10 06:40:09;;;;;;;2.78;1.40;;;17.20;89.00;;;;;;10506069;28;20047;-60
2022/06/10 06:45:10;;;;;;;1.92;1.30;;;17.20;89.10;;;;;;10508514;28;20024;-64
2022/06/10 06:50:14;;;;;;;3.97;1.60;;;17.20;89.10;;;;;;10507871;28;20040;-65
2022/06/10 06:55:15;;;;;;;3.20;1.23;;;17.30;89.30;;;;;;10506536;28;20484;-58
2022/06/10 07:00:17;;;;;;;3.05;1.60;;;17.30;89.30;;;;;;10516838;28;20051;-65
2022/06/10 07:05:18;;;;;;;3.83;1.20;;;17.30;89.40;;;;;;10504971;28;20063;-59
2022/06/10 07:10:21;;;;;;;2.85;1.20;;;17.30;89.50;;;;;;10509400;28;20390;-66
2022/06/10 07:15:22;;;;;;;4.57;1.20;;;17.30;89.60;;;;;;10501940;28;20107;-58
2022/06/10 07:20:29;;;;;;;5.32;2.13;;;17.40;89.80;;;;;;10501789;28;20013;-64
2022/06/10 07:25:31;;;;;;;4.30;1.33;;;17.40;89.90;;;;;;10512947;28;20027;-62
2022/06/10 07:30:34;;;;;;;2.17;1.30;;;17.50;89.80;;;;;;10512355;28;20091;-59
2022/06/10 07:35:35;;;;;;;3.67;1.67;;;17.50;89.80;;;;;;10508934;28;20028;-59
2022/06/10 07:46:00;;;;;;;1.98;1.02;;;17.50;89.90;;;;;;10511941;28;20440;-57
2022/06/10 07:51:01;;;;;;;3.13;1.10;;;17.50;90.00;;;;;;10494661;28;20048;-65
2022/06/10 07:56:02;;;;;;;5.20;1.73;;;17.50;90.00;;;;;;10499925;28;20089;-63
2022/06/10 08:01:03;;;;;;;5.22;1.20;;;17.50;90.00;;;;;;10504007;28;20029;-64
2022/06/10 08:06:04;;;;;;;5.32;1.40;;;17.50;90.10;;;;;;10501261;28;20040;-61
2022/06/10 08:11:05;;;;;;;2.13;1.20;;;17.50;90.30;;;;;;10505595;28;20059;-61
2022/06/10 08:16:06;;;;;;;3.65;1.45;;;17.50;90.30;;;;;;10503894;28;20032;-69
2022/06/10 08:26:26;;;;;;;3.03;1.20;;;17.60;90.40;;;;;;10499457;28;20062;-60
2022/06/10 08:31:27;;;;;;;4.10;1.30;;;17.60;90.40;;;;;;10503835;28;20040;-63
2022/06/10 08:36:29;;;;;;;7.75;1.45;;;17.60;90.40;;;;;;10505940;28;20016;-65
2022/06/10 08:42:13;;;;;;;3.47;1.80;;;17.70;90.50;;;;;;10505675;28;20032;-65
2022/06/10 08:47:35;;;;;;;5.03;1.50;;;17.60;90.60;;;;;;10505102;28;22602;-65
2022/06/10 08:52:58;;;;;;;3.55;1.38;;;17.60;90.60;;;;;;10515704;28;20086;-65
2022/06/10 08:58:03;;;;;;;2.70;1.30;;;17.60;90.70;;;;;;10503188;28;20050;-60
2022/06/10 09:03:19;;;;;;;3.15;1.17;;;17.60;90.60;;;;;;10507135;28;20031;-65
2022/06/10 09:08:24;;;;;;;3.72;1.67;;;17.60;90.70;;;;;;10508058;28;20509;-59
2022/06/10 09:13:34;;;;;;;2.92;1.35;;;17.70;90.70;;;;;;10513744;28;20110;-62
2022/06/10 09:18:47;;;;;;;4.18;1.10;;;17.70;90.70;;;;;;10511720;28;20036;-64
2022/06/10 09:23:48;;;;;;;2.42;1.02;;;17.80;90.70;;;;;;10510523;28;20468;-62
2022/06/10 09:28:50;;;;;;;2.05;1.10;;;17.80;90.60;;;;;;10507313;28;20032;-57
2022/06/10 09:34:16;;;;;;;3.67;1.48;;;17.90;90.60;;;;;;10515218;28;20032;-61
2022/06/10 09:44:55;;;;;;;3.33;1.30;;;18.00;90.50;;;;;;10513164;28;20085;-65
2022/06/10 09:50:05;;;;;;;4.57;1.30;;;18.10;90.60;;;;;;10506276;28;20046;-63
2022/06/10 09:55:27;;;;;;;3.45;1.27;;;18.20;90.50;;;;;;10512259;28;20040;-58
2022/06/10 10:00:48;;;;;;;3.83;1.60;;;18.30;90.50;;;;;;10507680;28;20027;-62
2022/06/10 10:06:04;;;;;;;4.38;1.40;;;18.40;90.50;;;;;;10509696;28;20036;-64
2022/06/10 10:11:16;;;;;;;2.33;1.35;;;18.40;90.40;;;;;;10510710;28;20043;-60
2022/06/10 10:16:38;;;;;;;4.55;1.38;;;18.40;90.40;;;;;;10504607;28;20022;-65
2022/06/10 10:21:42;;;;;;;3.95;1.40;;;18.50;90.40;;;;;;10506160;28;20027;-64
2022/06/10 10:26:45;;;;;;;3.85;1.20;;;18.60;90.30;;;;;;10504646;28;20384;-65
2022/06/10 10:31:49;;;;;;;4.00;1.55;;;18.70;90.30;;;;;;10499944;28;20032;-61
2022/06/10 10:36:53;;;;;;;3.95;1.40;;;18.80;90.30;;;;;;10511519;28;20115;-62
2022/06/10 10:41:58;;;;;;;2.78;1.40;;;18.70;90.30;;;;;;10505861;28;20039;-60
2022/06/10 10:47:11;;;;;;;3.55;1.40;;;18.80;90.30;;;;;;10513849;28;20024;-64
2022/06/10 10:52:24;;;;;;;3.05;1.27;;;18.80;90.50;;;;;;10514657;28;20619;-62
2022/06/10 10:57:31;;;;;;;4.18;1.50;;;18.90;90.40;;;;;;10495532;28;20083;-58
2022/06/10 11:02:37;;;;;;;2.70;1.20;;;18.90;90.40;;;;;;10508685;28;20032;-62
2022/06/10 11:07:37;;;;;;;4.00;1.25;;;18.90;90.50;;;;;;10508472;28;20072;-63
2022/06/10 11:12:40;;;;;;;3.83;1.40;;;18.90;90.50;;;;;;10504607;28;20608;-65
2022/06/10 11:17:43;;;;;;;3.30;1.30;;;18.90;90.60;;;;;;10508723;28;20465;-58
2022/06/10 11:22:46;;;;;;;4.85;1.63;;;19.00;90.60;;;;;;10505578;28;20048;-61
2022/06/10 11:27:49;;;;;;;4.20;1.60;;;18.90;90.60;;;;;;10513689;28;20040;-57
2022/06/10 11:33:16;;;;;;;5.35;1.40;;;19.00;90.60;;;;;;10505020;28;20030;-62
2022/06/10 11:38:26;;;;;;;5.22;1.70;;;19.00;90.60;;;;;;10504524;28;20036;-60
2022/06/10 11:43:31;;;;;;;2.95;1.60;;;19.10;90.60;;;;;;10504586;28;20085;-57
2022/06/10 11:48:35;;;;;;;4.50;1.45;;;19.10;90.60;;;;;;10503766;28;20580;-64
2022/06/10 11:54:01;;;;;;;2.20;1.30;;;19.10;90.60;;;;;;10502510;28;20013;-64
2022/06/10 12:04:40;;;;;;;4.72;1.70;;;19.20;90.60;;;;;;10500103;28;20052;-62
2022/06/10 12:09:46;;;;;;;4.82;1.85;;;19.30;90.70;;;;;;10500722;28;20056;-61
2022/06/10 12:14:54;;;;;;;2.47;1.83;;;19.30;90.70;;;;;;10508046;28;20743;-62
2022/06/10 12:20:16;;;;;;;5.40;2.10;;;19.30;90.60;;;;;;10497649;28;20020;-65
2022/06/10 12:25:23;;;;;;;3.55;1.60;;;19.40;90.70;;;;;;10509855;28;20409;-68
2022/06/10 12:30:34;;;;;;;4.18;2.17;;;19.40;90.70;;;;;;10506611;28;20115;-58
2022/06/10 12:35:37;;;;;;;2.97;1.75;;;19.40;90.80;;;;;;10506712;28;20074;-65
2022/06/10 12:40:43;;;;;;;6.47;2.20;;;19.40;91.10;;;;;;10510574;28;20580;-58
2022/06/10 12:45:50;;;;;;;4.25;2.20;;;19.40;90.80;;;;;;10509004;28;20031;-57
2022/06/10 12:51:07;;;;;;;4.90;1.90;;;19.50;90.90;;;;;;10510651;28;20044;-68
2022/06/10 12:56:22;;;;;;;4.25;1.80;;;19.50;90.90;;;;;;10506116;28;20135;-59
2022/06/10 13:01:41;;;;;;;2.97;1.77;;;19.60;90.90;;;;;;10506446;28;20077;-59
2022/06/10 13:06:42;;;;;;;4.18;1.70;;;19.70;90.80;;;;;;10509030;28;20226;-58
2022/06/10 13:11:57;;;;;;;5.43;2.28;;;19.80;90.70;;;;;;10509213;28;20064;-58
2022/06/10 13:16:57;;;;;;;3.00;1.90;;;19.80;90.70;;;;;;10506124;28;20382;-63
2022/06/10 13:22:23;;;;;;;4.97;2.22;;;20.00;90.60;;;;;;10505783;28;20028;-65
2022/06/10 13:27:26;;;;;;;3.42;2.03;;;20.10;90.40;;;;;;10513465;28;20035;-62
2022/06/10 13:32:28;;;;;;;2.97;1.90;;;20.20;90.40;;;;;;10501816;28;20032;-64
2022/06/10 13:37:32;;;;;;;4.60;1.75;;;20.20;90.30;;;;;;10515296;28;20016;-64
2022/06/10 13:42:37;;;;;;;3.60;1.98;;;20.30;90.30;;;;;;10509147;28;20025;-65
2022/06/10 13:47:38;;;;;;;3.97;2.08;;;20.40;90.20;;;;;;10507523;28;20512;-74
2022/06/10 13:52:56;;;;;;;7.00;2.17;;;20.80;90.20;;;;;;10513942;28;20074;-65
2022/06/10 13:58:15;;;;;;;4.18;2.17;;;21.10;89.80;;;;;;10504426;28;20032;-73
2022/06/10 14:03:25;;;;;;;5.03;2.13;;;21.40;89.40;;;;;;10511740;28;20032;-60
2022/06/10 14:08:30;;;;;;;4.88;2.47;;;21.60;88.30;;;;;;10505711;28;20978;-63
2022/06/10 14:13:31;;;;;;;4.47;2.40;;;21.70;88.60;;;;;;10514417;28;20049;-66
2022/06/10 14:18:32;;;;;;;7.60;2.30;;;21.80;88.40;;;;;;10508666;28;20399;-62
2022/06/10 14:23:35;;;;;;;4.88;2.20;;;21.70;89.00;;;;;;10508323;28;20499;-68
2022/06/10 14:28:41;;;;;;;4.45;1.80;;;21.60;89.50;;;;;;10505695;28;20067;-68
2022/06/10 14:33:49;;;;;;;4.40;1.67;;;21.50;89.80;;;;;;10505628;28;20024;-64
2022/06/10 14:39:12;;;;;;;5.88;1.80;;;21.90;88.90;;;;;;10507328;28;20051;-64
2022/06/10 14:44:19;;;;;;;4.18;1.73;;;22.30;87.50;;;;;;10512463;28;20021;-61
2022/06/10 14:49:29;;;;;;;5.23;1.83;;;22.30;87.50;;;;;;10505241;28;20042;-60
2022/06/10 14:54:30;;;;;;;4.13;2.05;;;22.50;86.50;;;;;;10510958;28;20101;-67
2022/06/10 14:59:30;;;;;;;7.75;1.90;;;22.70;86.50;;;;;;10510096;28;20143;-65
2022/06/10 15:04:31;;;;;;;3.10;1.50;;;22.80;86.20;;;;;;10506810;28;20102;-66
2022/06/10 15:09:40;;;;;;;6.32;1.70;;;22.80;85.70;;;;;;10513309;28;20412;-70
2022/06/10 15:14:41;;;;;;;4.10;1.58;;;22.80;85.60;;;;;;10508710;28;20107;-77
2022/06/10 15:19:42;;;;;;;5.18;1.77;;;23.00;85.40;;;;;;10503747;28;20055;-61
2022/06/10 15:24:43;;;;;;;4.28;1.77;;;22.80;85.60;;;;;;10508281;28;20032;-61
2022/06/10 15:29:44;;;;;;;6.30;1.80;;;22.70;86.00;;;;;;10508272;28;20541;-60
2022/06/10 15:45:32;;;;;;;4.63;2.00;;;23.30;83.70;;;;;;10495178;28;20085;-68
2022/06/10 15:50:33;;;;;;;4.20;1.83;;;23.20;84.10;;;;;;10506502;28;20093;-63
2022/06/10 16:00:56;;;;;;;6.97;2.25;;;22.90;84.20;;;;;;10509149;28;20035;-63
2022/06/10 16:05:57;;;;;;;7.95;2.00;;;22.60;84.80;;;;;;10515704;28;20040;-63
2022/06/10 16:10:58;;;;;;;4.47;2.25;;;22.40;85.40;;;;;;10515830;28;20484;-72
2022/06/10 16:16:00;;;;;;;3.88;1.50;;;22.20;85.70;;;;;;10514162;28;20257;-70
2022/06/10 16:21:03;;;;;;;3.90;1.73;;;22.00;86.30;;;;;;10520320;28;20075;-64
2022/06/10 16:26:11;;;;;;;5.45;1.60;;;21.80;87.00;;;;;;10509919;28;20031;-71
2022/06/10 16:31:18;;;;;;;30.92;8.10;;;21.70;87.50;;;;;;10520378;28;20040;-59
2022/06/10 16:36:22;;;;;;;40.42;7.90;;;21.60;88.00;;;;;;10517077;28;20554;-61
2022/06/10 16:41:30;;;;;;;32.38;7.88;;;21.60;88.30;;;;;;10511063;28;20035;-62
2022/06/10 16:46:39;;;;;;;52.78;11.40;;;21.50;88.60;;;;;;10514479;28;20023;-59
2022/06/10 16:51:40;;;;;;;42.80;8.77;;;21.50;88.80;;;;;;10513157;28;20028;-63
2022/06/10 16:56:41;;;;;;;41.83;8.07;;;21.50;89.00;;;;;;10508597;28;20024;-63
2022/06/10 17:01:41;;;;;;;32.15;7.53;;;21.50;89.10;;;;;;10507486;28;20031;-63
2022/06/10 17:06:43;;;;;;;31.73;6.38;;;21.60;89.30;;;;;;10512553;28;20127;-61
2022/06/10 17:11:49;;;;;;;21.42;6.18;;;21.60;89.40;;;;;;10507870;28;20126;-62
2022/06/10 17:16:51;;;;;;;30.27;6.82;;;21.50;89.50;;;;;;10517331;28;20115;-60
2022/06/10 17:21:52;;;;;;;20.13;5.13;;;21.40;89.80;;;;;;10509187;28;20032;-63
2022/06/10 17:26:54;;;;;;;26.02;6.57;;;21.40;90.00;;;;;;10517256;28;20031;-59
2022/06/10 17:31:55;;;;;;;27.20;6.32;;;21.30;90.10;;;;;;10511626;28;20536;-60
2022/06/10 17:36:58;;;;;;;20.48;5.40;;;21.30;90.30;;;;;;10514365;28;20035;-61
2022/06/10 17:41:59;;;;;;;27.52;5.40;;;21.20;90.30;;;;;;10508467;28;22505;-62
2022/06/10 17:47:05;;;;;;;16.30;4.88;;;21.20;90.40;;;;;;10510944;28;20032;-61
2022/06/10 17:52:13;;;;;;;19.15;4.88;;;21.20;90.50;;;;;;10510947;28;20045;-57
2022/06/10 17:57:26;;;;;;;21.05;5.90;;;21.10;90.60;;;;;;10509072;28;20458;-59
2022/06/10 18:03:06;;;;;;;21.48;5.10;;;21.10;90.80;;;;;;10508825;28;20039;-62
2022/06/10 18:08:13;;;;;;;16.77;4.63;;;21.10;90.90;;;;;;10497216;28;20501;-60
2022/06/10 18:18:40;;;;;;;15.50;3.70;;;21.00;91.10;;;;;;10507718;28;20036;-59
2022/06/10 18:23:46;;;;;;;18.65;4.20;;;21.00;91.20;;;;;;10510388;28;20092;-60
2022/06/10 18:28:46;;;;;;;12.23;3.55;;;20.90;91.30;;;;;;10511233;28;20027;-62
2022/06/10 18:33:47;;;;;;;11.02;3.28;;;20.90;91.40;;;;;;10509304;28;20024;-58
2022/06/10 18:38:48;;;;;;;11.45;3.60;;;20.90;91.40;;;;;;10505641;28;20032;-58
2022/06/10 18:43:49;;;;;;;9.98;3.45;;;20.80;91.50;;;;;;10503036;28;20029;-61
2022/06/10 18:48:59;;;;;;;10.23;2.92;;;20.80;91.60;;;;;;10502658;28;20423;-59
2022/06/10 18:54:03;;;;;;;11.02;3.00;;;20.80;91.70;;;;;;10508557;28;20020;-58
2022/06/10 18:59:04;;;;;;;9.57;3.30;;;20.80;91.80;;;;;;10507380;28;20513;-58
2022/06/10 19:04:08;;;;;;;8.30;2.85;;;20.80;91.80;;;;;;10509953;28;20036;-61
2022/06/10 19:09:15;;;;;;;6.35;2.75;;;20.70;91.90;;;;;;10500444;28;20052;-58
2022/06/10 19:14:17;;;;;;;9.05;3.22;;;20.70;92.00;;;;;;10503430;28;20704;-59
2022/06/10 19:19:27;;;;;;;10.57;2.53;;;20.70;92.00;;;;;;10498233;28;20093;-61
2022/06/10 19:24:31;;;;;;;7.80;2.65;;;20.70;92.20;;;;;;10500090;28;20021;-59
2022/06/10 19:29:32;;;;;;;7.85;2.60;;;20.60;92.20;;;;;;10507924;28;20090;-61
2022/06/10 19:34:40;;;;;;;9.82;3.10;;;20.60;92.20;;;;;;10507227;28;20155;-58
2022/06/10 19:39:40;;;;;;;6.18;2.28;;;20.60;92.30;;;;;;10504594;28;20028;-61
2022/06/10 19:44:41;;;;;;;6.70;2.67;;;20.60;92.30;;;;;;10510860;28;20034;-61
2022/06/10 19:49:44;;;;;;;6.13;2.40;;;20.50;92.40;;;;;;10514570;28;20027;-61
2022/06/10 19:54:45;;;;;;;7.35;2.97;;;20.50;92.50;;;;;;10511783;28;20034;-60
2022/06/10 19:59:46;;;;;;;6.18;2.17;;;20.50;92.60;;;;;;10507342;28;20039;-58
2022/06/10 20:04:47;;;;;;;5.32;2.20;;;20.50;92.60;;;;;;10507272;28;20028;-58
2022/06/10 20:09:59;;;;;;;6.13;2.20;;;20.50;92.60;;;;;;10502584;28;20044;-61
2022/06/10 20:15:01;;;;;;;6.60;2.42;;;20.40;92.70;;;;;;10499358;28;20024;-61
2022/06/10 20:20:16;;;;;;;5.43;2.20;;;20.40;92.70;;;;;;10506898;28;20043;-60
2022/06/10 20:25:28;;;;;;;3.97;2.00;;;20.40;92.80;;;;;;10499889;28;20499;-61
2022/06/10 20:30:30;;;;;;;5.28;2.08;;;20.40;92.80;;;;;;10504209;28;20028;-58
2022/06/10 20:35:36;;;;;;;8.85;2.45;;;20.30;92.80;;;;;;10503958;28;20023;-60
2022/06/10 20:40:37;;;;;;;4.50;2.25;;;20.30;92.90;;;;;;10502515;28;20044;-57
2022/06/10 20:45:45;;;;;;;4.65;2.03;;;20.30;92.90;;;;;;10514985;28;20036;-62
2022/06/10 20:50:46;;;;;;;4.57;1.90;;;20.30;93.10;;;;;;10509468;28;20048;-58
2022/06/10 20:55:48;;;;;;;3.65;1.88;;;20.20;93.10;;;;;;10510396;28;20051;-59
2022/06/10 21:00:51;;;;;;;4.38;2.03;;;20.20;93.10;;;;;;10513607;28;20032;-58
2022/06/10 21:11:13;;;;;;;4.50;1.90;;;20.20;93.20;;;;;;10506568;28;20097;-61
2022/06/10 21:16:20;;;;;;;3.00;1.83;;;20.10;93.30;;;;;;10511183;28;20545;-59
2022/06/10 21:21:33;;;;;;;4.25;1.98;;;20.10;93.40;;;;;;10509939;28;20021;-60
2022/06/10 21:26:34;;;;;;;2.47;1.73;;;20.10;93.50;;;;;;10512710;28;20028;-58
2022/06/10 21:32:05;;;;;;;3.25;1.67;;;20.10;93.40;;;;;;10509422;28;20031;-58
2022/06/10 21:37:07;;;;;;;3.58;1.90;;;20.00;93.60;;;;;;10492834;28;20051;-64
2022/06/10 21:47:36;;;;;;;4.70;2.90;;;20.00;93.50;;;;;;10513799;28;20070;-62
2022/06/10 21:52:41;;;;;;;3.15;1.80;;;20.00;93.60;;;;;;10508353;28;20048;-56
2022/06/10 21:57:42;;;;;;;4.28;1.85;;;20.00;93.60;;;;;;10513809;28;20027;-60
2022/06/10 22:02:43;;;;;;;4.15;1.67;;;20.00;93.60;;;;;;10505275;28;20028;-57
2022/06/10 22:07:43;;;;;;;3.90;1.95;;;20.00;93.60;;;;;;10502466;28;20039;-60
2022/06/10 22:12:45;;;;;;;6.05;2.17;;;19.90;93.70;;;;;;10508895;28;20078;-59
2022/06/10 22:17:48;;;;;;;4.72;2.20;;;19.90;93.70;;;;;;10508285;28;20146;-57
2022/06/10 22:22:51;;;;;;;4.15;2.33;;;19.90;93.80;;;;;;10504875;28;20032;-60
2022/06/10 22:27:55;;;;;;;5.47;2.28;;;19.90;93.80;;;;;;10509368;28;20028;-60
2022/06/10 22:33:00;;;;;;;5.38;2.22;;;19.80;93.80;;;;;;10511127;28;20036;-57
2022/06/10 22:38:03;;;;;;;3.42;2.33;;;19.80;93.90;;;;;;10502921;28;20048;-57
2022/06/10 22:43:06;;;;;;;2.65;1.88;;;19.80;93.90;;;;;;10506683;28;20029;-60
2022/06/10 22:48:07;;;;;;;2.83;1.98;;;19.80;93.90;;;;;;10507100;28;20059;-60
2022/06/10 22:53:10;;;;;;;4.22;2.47;;;19.80;94.00;;;;;;10510952;28;20016;-56
2022/06/10 22:58:40;;;;;;;6.38;2.45;;;19.70;94.00;;;;;;10513963;28;20068;-59
2022/06/10 23:03:45;;;;;;;3.58;2.50;;;19.70;94.10;;;;;;10481235;28;20036;-56
2022/06/10 23:14:14;;;;;;;4.47;2.47;;;19.70;94.00;;;;;;10501860;28;20615;-56
2022/06/10 23:19:18;;;;;;;2.33;2.00;;;19.60;94.00;;;;;;10509098;28;20118;-58
2022/06/10 23:24:20;;;;;;;4.32;2.95;;;19.60;94.00;;;;;;10509562;28;20025;-56
2022/06/10 23:29:20;;;;;;;4.22;2.25;;;19.60;94.00;;;;;;10504237;28;20039;-58
2022/06/10 23:34:27;;;;;;;5.65;2.53;;;19.60;94.10;;;;;;10505078;28;20090;-59
2022/06/10 23:39:28;;;;;;;3.60;2.22;;;19.60;94.10;;;;;;10498492;28;20029;-57
2022/06/10 23:44:41;;;;;;;4.13;2.67;;;19.50;94.10;;;;;;10511620;28;20048;-58
